This is the latest recevied weather packets stored in our database for station/object IZ5MMH-1. If no packets are shown the sender has not sent any weather packets the latest 10 day(s).
| Time | Temp. | Humidity | Pressure | Rain* | Wind** | Luminosity | Snow |
|---|---|---|---|---|---|---|---|
| 1787642684 | 27.22° C | 57% | 1011.2 hPa | - | - | - | - |
| 1787642083 | 28.33° C | 56% | 1011.2 hPa | - | - | - | - |
| 1787641483 | 27.22° C | 59% | 1011.4 hPa | - | - | - | - |
| 1787640883 | 28.33° C | 55% | 1011.2 hPa | - | - | - | - |
| 1787640283 | 30° C | 53% | 1011.4 hPa | - | - | - | - |
| 1787639684 | 29.44° C | 55% | 1011.5 hPa | - | - | - | - |
| 1787639084 | 28.89° C | 56% | 1011.4 hPa | - | - | - | - |
| 1787638484 | 28.33° C | 60% | 1011.4 hPa | - | - | - | - |
| 1787637884 | 27.22° C | 61% | 1011.6 hPa | - | - | - | - |
| 1787637283 | 26.67° C | 63% | 1011.6 hPa | - | - | - | - |
| 1787636683 | 24.44° C | 67% | 1011.6 hPa | - | - | - | - |
| 1787636083 | 23.33° C | 67% | 1011.9 hPa | - | - | - | - |
| 1787635483 | 22.22° C | 71% | 1011.8 hPa | - | - | - | - |
| 1787634883 | 20.56° C | 76% | 1011.8 hPa | - | - | - | - |
| 1787634283 | 20.56° C | 76% | 1011.7 hPa | - | - | - | - |
| 1787633683 | 20.56° C | 73% | 1011.7 hPa | - | - | - | - |
| 1787633082 | 20.56° C | 73% | 1011.9 hPa | - | - | - | - |
| 1787632484 | 20.56° C | 72% | 1011.6 hPa | - | - | - | - |
| 1787631883 | 20.56° C | 73% | 1011.7 hPa | - | - | - | - |
| 1787631283 | 20.56° C | 75% | 1011.7 hPa | - | - | - | - |
| 1787630683 | 20.56° C | 73% | 1011.9 hPa | - | - | - | - |
| 1787630083 | 20.56° C | 75% | 1012.2 hPa | - | - | - | - |
| 1787629483 | 20.56° C | 76% | 1012.3 hPa | - | - | - | - |
| 1787628882 | 20.56° C | 76% | 1012.2 hPa | - | - | - | - |
| 1787628282 | 20.56° C | 73% | 1011.9 hPa | - | - | - | - |
* Rain since midnight (hover to see other rain measurements)
** Current wind speed in m/s (hover to see current wind gust speed)